createdAt,value
2022-11-05T00:00:51.437Z,89768.38
2022-11-05T00:03:18.558Z,89773.06
2022-11-05T00:05:48.544Z,89769.56
2022-11-05T00:08:15.457Z,89772.53
2022-11-05T00:10:42.599Z,89766.84
2022-11-05T00:13:11.328Z,89766.56
2022-11-05T00:15:38.659Z,89773.06
2022-11-05T00:18:05.611Z,89772.28
2022-11-05T00:20:33.529Z,89773.69
2022-11-05T00:23:05.277Z,89769.22
2022-11-05T00:25:33.213Z,89771.81
2022-11-05T00:28:04.058Z,89776.13
2022-11-05T00:30:31.304Z,89781.34
2022-11-05T00:33:02.009Z,89781.81
2022-11-05T00:35:28.971Z,89777.28
2022-11-05T00:37:55.730Z,89781.16
2022-11-05T00:40:23.125Z,89776.00
2022-11-05T00:42:50.036Z,89776.13
2022-11-05T00:45:17.487Z,89777.13
2022-11-05T00:47:44.484Z,89774.66
2022-11-05T00:50:11.427Z,89776.38
2022-11-05T00:52:39.173Z,89782.28
2022-11-05T00:55:06.239Z,89779.16
2022-11-05T00:57:33.066Z,89780.22
2022-11-05T00:59:59.942Z,89778.47
2022-11-05T01:02:27.630Z,89779.59
2022-11-05T01:04:54.622Z,89782.06
2022-11-05T01:07:21.964Z,89770.28
2022-11-05T01:09:48.856Z,89771.59
2022-11-05T01:12:15.678Z,89774.19
2022-11-05T01:14:42.636Z,89765.00
2022-11-05T01:17:09.525Z,89774.34
2022-11-05T01:19:36.332Z,89770.09
2022-11-05T01:22:03.293Z,89776.53
2022-11-05T01:24:31.316Z,89765.47
2022-11-05T01:26:58.076Z,89763.38
2022-11-05T01:29:25.581Z,89761.94
2022-11-05T01:31:52.454Z,89762.78
2022-11-05T01:34:19.327Z,89765.38
2022-11-05T01:36:46.158Z,89761.75
2022-11-05T01:39:13.809Z,89759.09
2022-11-05T01:41:40.681Z,89760.53
2022-11-05T01:44:46.882Z,89763.00
2022-11-05T01:47:39.864Z,89762.06
2022-11-05T01:50:42.527Z,89766.25
2022-11-05T01:53:30.191Z,89768.81
2022-11-05T01:56:13.888Z,89769.41
2022-11-05T01:58:53.098Z,89771.50
2022-11-05T02:01:20.383Z,89767.88
2022-11-05T02:03:50.800Z,89773.84
2022-11-05T02:06:18.828Z,89784.31
2022-11-05T02:09:00.845Z,89780.06
2022-11-05T02:11:28.897Z,89783.03
2022-11-05T02:13:57.075Z,89783.34
2022-11-05T02:16:53.445Z,89778.44
2022-11-05T02:19:59.254Z,89776.03
2022-11-05T02:22:26.110Z,89778.56
2022-11-05T02:25:01.925Z,89778.63
2022-11-05T02:28:15.227Z,89777.13
2022-11-05T02:30:48.018Z,89774.88
2022-11-05T02:33:31.625Z,89788.38
2022-11-05T02:36:32.623Z,89787.06
2022-11-05T02:39:22.238Z,89792.50
2022-11-05T02:42:14.736Z,89793.44
2022-11-05T02:44:59.815Z,89795.84
2022-11-05T02:47:47.322Z,89794.38
2022-11-05T02:50:44.750Z,89796.63
2022-11-05T02:53:35.499Z,89789.75
2022-11-05T02:56:27.085Z,89787.97
2022-11-05T02:58:53.959Z,89789.13
2022-11-05T03:01:20.826Z,89800.31
2022-11-05T03:03:54.273Z,89797.31
2022-11-05T03:06:42.939Z,89802.56
2022-11-05T03:09:12.750Z,89802.38
2022-11-05T03:12:14.423Z,89798.78
2022-11-05T03:15:06.038Z,89800.84
2022-11-05T03:17:38.833Z,89808.19
2022-11-05T03:20:17.749Z,89801.25
2022-11-05T03:22:54.606Z,89801.38
2022-11-05T03:25:24.440Z,89800.44
2022-11-05T03:27:58.447Z,89802.13
2022-11-05T03:30:26.096Z,89806.03
2022-11-05T03:33:00.861Z,89814.50
2022-11-05T03:35:31.992Z,89813.56
2022-11-05T03:38:05.376Z,89812.69
2022-11-05T03:40:38.571Z,89809.44
2022-11-05T03:43:08.288Z,89808.81
2022-11-05T03:45:41.990Z,89812.59
2022-11-05T03:48:12.374Z,89819.66
2022-11-05T03:51:12.833Z,89809.03
2022-11-05T03:53:55.865Z,89813.44
2022-11-05T03:57:03.812Z,89819.59
2022-11-05T03:59:32.876Z,89808.88
2022-11-05T04:01:59.905Z,89819.34
2022-11-05T04:04:26.974Z,89813.47
2022-11-05T04:06:53.838Z,89814.84
2022-11-05T04:09:20.965Z,89817.22
2022-11-05T04:11:48.419Z,89810.91
2022-11-05T04:14:15.290Z,89810.91
2022-11-05T04:16:42.119Z,89821.94
2022-11-05T04:19:08.976Z,89826.06
2022-11-05T04:21:35.778Z,89825.19
2022-11-05T04:24:03.281Z,89823.44
2022-11-05T04:26:30.326Z,89831.06
2022-11-05T04:28:58.157Z,89827.81
2022-11-05T04:31:25.022Z,89828.13
2022-11-05T04:33:51.932Z,89828.22
2022-11-05T04:36:19.336Z,89838.81
2022-11-05T04:38:46.148Z,89837.00
2022-11-05T04:41:33.100Z,89836.28
2022-11-05T04:44:00.026Z,89836.44
2022-11-05T04:46:27.466Z,89842.38
2022-11-05T04:48:55.660Z,89835.91
2022-11-05T04:51:22.501Z,89847.09
2022-11-05T04:53:50.733Z,89838.97
2022-11-05T04:56:22.712Z,89840.75
2022-11-05T04:58:49.883Z,89837.97
2022-11-05T05:01:21.868Z,89845.03
2022-11-05T05:03:53.716Z,89854.72
2022-11-05T05:06:21.010Z,89852.59
2022-11-05T05:08:56.289Z,89857.97
2022-11-05T05:11:23.253Z,89862.75
2022-11-05T05:13:50.426Z,89864.75
2022-11-05T05:16:23.826Z,89863.56
2022-11-05T05:18:51.349Z,89860.53
2022-11-05T05:21:22.063Z,89859.41
2022-11-05T05:23:49.116Z,89858.84
2022-11-05T05:26:16.897Z,89864.34
2022-11-05T05:28:43.727Z,89871.59
2022-11-05T05:31:10.658Z,89869.22
2022-11-05T05:33:37.596Z,89876.38
2022-11-05T05:36:08.499Z,89868.25
2022-11-05T05:38:38.321Z,89874.06
2022-11-05T05:41:05.282Z,89875.19
2022-11-05T05:43:33.678Z,89868.88
2022-11-05T05:46:04.952Z,89873.66
2022-11-05T05:58:20.700Z,89889.34
2022-11-05T06:00:47.532Z,89887.03
2022-11-05T06:03:14.776Z,89886.47
2022-11-05T06:05:41.835Z,89879.84
2022-11-05T06:08:08.699Z,89879.31
2022-11-05T06:10:36.099Z,89883.44
2022-11-05T06:13:03.369Z,89890.81
2022-11-05T06:15:35.504Z,89888.41
2022-11-05T06:18:02.824Z,89883.50
2022-11-05T06:20:29.926Z,89891.03
2022-11-05T06:22:57.649Z,89889.66
2022-11-05T06:25:25.390Z,89901.94
2022-11-05T06:27:53.476Z,89895.69
2022-11-05T06:30:20.423Z,89900.56
2022-11-05T06:32:47.542Z,89889.09
2022-11-05T06:35:14.392Z,89895.88
2022-11-05T06:37:41.250Z,89891.47
2022-11-05T06:40:08.968Z,89895.94
2022-11-05T06:42:35.968Z,89894.72
2022-11-05T06:45:05.460Z,89886.28
2022-11-05T06:47:32.182Z,89884.97
2022-11-05T06:49:59.125Z,89887.63
2022-11-05T06:52:25.917Z,89886.69
2022-11-05T06:54:52.835Z,89884.16
2022-11-05T06:57:20.694Z,89889.69
2022-11-05T06:59:47.537Z,89886.44
2022-11-05T07:02:14.429Z,89881.66
2022-11-05T07:04:41.571Z,89882.81
2022-11-05T07:07:08.371Z,89880.06
2022-11-05T07:09:35.320Z,89885.00
2022-11-05T07:12:02.153Z,89882.59
2022-11-05T07:14:29.003Z,89879.84
2022-11-05T07:16:57.603Z,89881.41
2022-11-05T07:19:24.490Z,89879.84
2022-11-05T07:21:51.351Z,89877.47
2022-11-05T07:24:18.312Z,89883.38
2022-11-05T07:26:45.189Z,89877.56
2022-11-05T07:29:11.957Z,89874.47
2022-11-05T07:31:38.744Z,89866.31
2022-11-05T07:34:05.652Z,89870.00
2022-11-05T07:36:32.500Z,89867.97
2022-11-05T07:39:00.685Z,89868.16
2022-11-05T07:41:27.705Z,89866.50
2022-11-05T07:43:54.700Z,89871.19
2022-11-05T07:46:21.548Z,89863.94
2022-11-05T07:48:48.522Z,89871.75
2022-11-05T07:51:15.277Z,89872.47
2022-11-05T07:53:45.270Z,89867.19
2022-11-05T07:56:12.931Z,89872.09
2022-11-05T07:58:39.808Z,89886.16
2022-11-05T08:01:06.826Z,89872.34
2022-11-05T08:03:34.471Z,89864.28
2022-11-05T08:06:01.534Z,89864.34
2022-11-05T08:08:28.356Z,89867.00
2022-11-05T08:11:03.326Z,89875.28
2022-11-05T08:13:30.146Z,89871.84
2022-11-05T08:15:57.596Z,89869.44
2022-11-05T08:18:24.922Z,89869.97
2022-11-05T08:20:51.700Z,89863.19
2022-11-05T08:23:18.524Z,89873.22
2022-11-05T08:25:45.361Z,89876.38
2022-11-05T08:28:13.504Z,89861.50
2022-11-05T08:30:40.966Z,89864.41
2022-11-05T08:33:11.792Z,89867.31
2022-11-05T08:35:39.990Z,89868.28
2022-11-05T08:38:10.003Z,89870.72
2022-11-05T08:40:37.747Z,89866.53
2022-11-05T08:43:07.477Z,89868.47
2022-11-05T08:45:36.501Z,89857.91
2022-11-05T08:48:06.629Z,89849.72
2022-11-05T08:50:34.584Z,89855.59
2022-11-05T08:53:01.518Z,89857.72
2022-11-05T08:55:28.675Z,89860.88
2022-11-05T08:57:56.947Z,89855.56
2022-11-05T09:00:24.294Z,89855.56
2022-11-05T09:02:51.447Z,89848.41
2022-11-05T09:05:18.641Z,89856.69
2022-11-05T09:07:46.018Z,89857.72
2022-11-05T09:10:13.678Z,89855.38
2022-11-05T09:12:40.728Z,89853.78
2022-11-05T09:15:10.870Z,89850.91
2022-11-05T09:17:37.848Z,89841.53
2022-11-05T09:20:05.704Z,89840.31
2022-11-05T09:22:32.778Z,89843.94
2022-11-05T09:25:00.097Z,89851.38
2022-11-05T09:27:26.996Z,89843.34
2022-11-05T09:29:55.219Z,89844.19
2022-11-05T09:32:22.065Z,89842.50
2022-11-05T09:34:49.388Z,89842.22
2022-11-05T09:37:16.748Z,89844.22
2022-11-05T09:39:43.648Z,89840.09
2022-11-05T09:42:17.560Z,89832.81
2022-11-05T09:44:53.016Z,89829.31
2022-11-05T09:47:47.014Z,89830.78
2022-11-05T09:50:19.135Z,89823.59
2022-11-05T09:52:46.060Z,89824.16
2022-11-05T09:55:26.646Z,89820.44
2022-11-05T09:57:59.534Z,89815.56
2022-11-05T10:00:26.566Z,89818.56
2022-11-05T10:03:03.429Z,89816.06
2022-11-05T10:05:32.804Z,89819.56
2022-11-05T10:08:03.463Z,89826.88
2022-11-05T10:10:44.776Z,89820.72
2022-11-05T10:13:51.828Z,89809.38
2022-11-05T10:16:57.984Z,89820.03
2022-11-05T10:19:30.922Z,89810.69
2022-11-05T10:22:19.228Z,89814.19
2022-11-05T10:24:49.309Z,89805.84
2022-11-05T10:27:31.276Z,89804.66
2022-11-05T10:29:58.205Z,89814.59
2022-11-05T10:32:37.896Z,89805.97
2022-11-05T10:35:07.684Z,89798.69
2022-11-05T10:37:40.665Z,89804.50
2022-11-05T10:40:30.546Z,89789.69
2022-11-05T10:43:14.930Z,89794.69
2022-11-05T10:46:05.859Z,89796.63
2022-11-05T10:48:58.938Z,89790.75
2022-11-05T10:51:28.714Z,89794.47
2022-11-05T10:54:02.286Z,89788.47
2022-11-05T10:56:34.982Z,89788.06
2022-11-05T10:59:02.277Z,89792.22
2022-11-05T11:01:32.452Z,89787.09
2022-11-05T11:04:23.241Z,89774.59
2022-11-05T11:06:56.079Z,89774.03
2022-11-05T11:09:29.311Z,89775.91
2022-11-05T11:12:05.255Z,89769.38
2022-11-05T11:14:32.621Z,89760.72
2022-11-05T11:17:26.254Z,89764.78
2022-11-05T11:20:11.886Z,89770.13
2022-11-05T11:22:41.751Z,89764.94
2022-11-05T11:25:51.088Z,89759.53
2022-11-05T11:28:22.511Z,89766.22
2022-11-05T11:31:26.619Z,89760.34
2022-11-05T11:34:05.145Z,89755.50
2022-11-05T11:36:43.690Z,89758.09
2022-11-05T11:39:17.630Z,89762.03
2022-11-05T11:41:47.261Z,89763.41
2022-11-05T11:44:25.425Z,89761.19
2022-11-05T11:46:55.667Z,89758.59
2022-11-05T11:49:54.551Z,89755.00
2022-11-05T11:52:37.520Z,89755.50
2022-11-05T11:55:13.532Z,89758.84
2022-11-05T11:57:53.448Z,89749.25
2022-11-05T12:00:23.844Z,89749.72
2022-11-05T12:03:05.625Z,89744.91
2022-11-05T12:05:42.666Z,89746.63
2022-11-05T12:08:45.239Z,89751.75
2022-11-05T12:11:23.790Z,89751.53
2022-11-05T12:14:01.784Z,89747.16
2022-11-05T12:16:51.523Z,89758.03
2022-11-05T12:19:24.452Z,89748.38
2022-11-05T12:22:20.651Z,89750.31
2022-11-05T12:25:13.008Z,89759.09
2022-11-05T12:28:01.096Z,89755.38
2022-11-05T12:30:37.009Z,89749.78
2022-11-05T12:33:24.034Z,89762.69
2022-11-05T12:35:59.734Z,89756.66
2022-11-05T12:38:29.581Z,89756.53
2022-11-05T12:41:18.013Z,89754.72
2022-11-05T12:43:53.233Z,89753.97
2022-11-05T12:46:31.977Z,89753.97
2022-11-05T12:49:35.761Z,89755.84
2022-11-05T12:52:11.382Z,89761.91
2022-11-05T12:54:57.633Z,89751.88
2022-11-05T12:57:27.660Z,89767.81
2022-11-05T13:00:13.155Z,89756.03
2022-11-05T13:03:18.364Z,89761.66
2022-11-05T13:08:52.609Z,89769.38
2022-11-05T13:11:41.852Z,89771.13
2022-11-05T13:14:41.176Z,89762.63
2022-11-05T13:17:24.805Z,89768.03
2022-11-05T13:20:06.976Z,89767.72
2022-11-05T13:22:38.487Z,89771.31
2022-11-05T13:25:20.354Z,89771.81
2022-11-05T13:28:10.153Z,89768.34
2022-11-05T13:30:52.767Z,89776.28
2022-11-05T13:33:35.706Z,89770.84
2022-11-05T13:36:07.539Z,89770.16
2022-11-05T13:38:34.812Z,89771.56
2022-11-05T13:41:12.721Z,89778.75
2022-11-05T13:43:58.887Z,89768.69
2022-11-05T13:46:31.988Z,89772.72
2022-11-05T13:49:23.491Z,89776.56
2022-11-05T13:51:54.250Z,89772.84
2022-11-05T13:54:42.390Z,89774.88
2022-11-05T13:57:28.642Z,89766.84
2022-11-05T14:00:20.237Z,89769.19
2022-11-05T14:03:02.080Z,89766.41
2022-11-05T14:05:41.549Z,89765.94
2022-11-05T14:08:17.618Z,89774.09
2022-11-05T14:10:58.591Z,89771.00
2022-11-05T14:13:44.708Z,89768.13
2022-11-05T14:16:48.668Z,89763.16
2022-11-05T14:19:18.677Z,89771.00
2022-11-05T14:21:51.074Z,89772.69
2022-11-05T14:24:23.834Z,89773.44
2022-11-05T14:27:03.097Z,89767.84
2022-11-05T14:29:40.482Z,89774.94
2022-11-05T14:32:41.625Z,89766.59
2022-11-05T14:35:17.704Z,89771.94
2022-11-05T14:37:58.998Z,89763.88
2022-11-05T14:40:39.661Z,89765.78
2022-11-05T14:43:23.494Z,89758.72
2022-11-05T14:46:02.216Z,89766.81
2022-11-05T14:48:48.903Z,89767.19
2022-11-05T14:51:30.953Z,89770.66
2022-11-05T14:54:23.565Z,89763.28
2022-11-05T14:56:56.398Z,89766.03
2022-11-05T14:59:29.652Z,89768.00
2022-11-05T15:02:04.661Z,89770.97
2022-11-05T15:04:36.445Z,89768.09
2022-11-05T15:07:03.299Z,89767.66
2022-11-05T15:09:37.099Z,89767.66
2022-11-05T15:12:09.748Z,89768.88
2022-11-05T15:14:58.433Z,89769.63
2022-11-05T15:17:32.550Z,89760.94
2022-11-05T15:20:24.098Z,89768.28
2022-11-05T15:23:00.409Z,89770.00
2022-11-05T15:25:51.975Z,89780.09
2022-11-05T15:28:46.131Z,89777.16
2022-11-05T15:31:12.975Z,89781.59
2022-11-05T15:33:49.457Z,89781.16
2022-11-05T15:36:32.346Z,89778.50
2022-11-05T15:39:27.927Z,89784.88
2022-11-05T15:41:47.934Z,89784.16
2022-11-05T15:44:38.022Z,89784.41
2022-11-05T15:47:29.273Z,89786.84
2022-11-05T15:49:57.957Z,89791.00
2022-11-05T15:52:46.529Z,89792.47
2022-11-05T15:55:13.386Z,89797.34
2022-11-05T15:57:52.608Z,89791.47
2022-11-05T16:00:25.878Z,89794.88
2022-11-05T16:03:02.908Z,89797.59
2022-11-05T16:05:36.339Z,89791.28
2022-11-05T16:08:03.695Z,89801.25
2022-11-05T16:10:34.515Z,89797.84
2022-11-05T16:13:23.704Z,89802.75
2022-11-05T16:16:00.842Z,89797.59
2022-11-05T16:18:36.023Z,89800.53
2022-11-05T16:21:04.710Z,89804.66
2022-11-05T16:23:48.379Z,89809.78
2022-11-05T16:27:01.135Z,89808.31
2022-11-05T16:29:31.471Z,89806.84
2022-11-05T16:32:00.309Z,89817.34
2022-11-05T16:34:43.315Z,89817.34
2022-11-05T16:37:16.095Z,89821.78
2022-11-05T16:39:42.972Z,89816.88
2022-11-05T16:42:24.877Z,89816.63
2022-11-05T16:44:57.619Z,89811.50
2022-11-05T16:47:27.349Z,89817.84
2022-11-05T16:49:54.242Z,89822.25
2022-11-05T16:52:21.716Z,89825.16
2022-11-05T16:54:48.660Z,89819.78
2022-11-05T16:57:28.404Z,89827.34
2022-11-05T16:59:56.368Z,89826.13
2022-11-05T17:02:23.368Z,89821.25
2022-11-05T17:04:50.386Z,89827.63
2022-11-05T17:07:17.240Z,89827.41
2022-11-05T17:09:44.075Z,89832.97
2022-11-05T17:12:12.338Z,89832.94
2022-11-05T17:14:39.511Z,89839.00
2022-11-05T17:17:06.558Z,89831.16
2022-11-05T17:19:34.103Z,89834.63
2022-11-05T17:22:00.839Z,89827.47
2022-11-05T17:24:27.701Z,89833.41
2022-11-05T17:26:54.664Z,89831.59
2022-11-05T17:29:21.384Z,89836.50
2022-11-05T17:31:48.328Z,89835.03
2022-11-05T17:34:15.182Z,89834.59
2022-11-05T17:36:41.895Z,89834.06
2022-11-05T17:39:08.857Z,89834.78
2022-11-05T17:41:36.286Z,89828.00
2022-11-05T17:44:03.173Z,89829.66
2022-11-05T17:46:29.956Z,89834.03
2022-11-05T17:48:56.953Z,89828.44
2022-11-05T17:51:23.671Z,89832.31
2022-11-05T17:53:50.955Z,89833.28
2022-11-05T17:56:28.793Z,89833.28
2022-11-05T17:59:00.620Z,89831.03
2022-11-05T18:01:33.927Z,89828.84
2022-11-05T18:04:07.233Z,89833.47
2022-11-05T18:06:35.964Z,89828.16
2022-11-05T18:09:03.301Z,89838.41
2022-11-05T18:11:30.170Z,89835.00
2022-11-05T18:13:57.033Z,89840.63
2022-11-05T18:16:23.844Z,89841.34
2022-11-05T18:18:50.709Z,89844.56
2022-11-05T18:21:19.018Z,89844.31
2022-11-05T18:23:46.002Z,89848.97
2022-11-05T18:26:16.725Z,89853.88
2022-11-05T18:28:44.662Z,89845.84
2022-11-05T18:31:18.445Z,89844.19
2022-11-05T18:33:45.552Z,89851.00
2022-11-05T18:36:23.975Z,89851.47
2022-11-05T18:38:50.945Z,89852.66
2022-11-05T18:41:18.911Z,89850.50
2022-11-05T18:43:45.860Z,89860.44
2022-11-05T18:46:29.211Z,89859.06
2022-11-05T18:49:00.586Z,89868.28
2022-11-05T18:51:27.841Z,89871.50
2022-11-05T18:53:55.419Z,89869.38
2022-11-05T18:56:22.558Z,89877.13
2022-11-05T18:58:50.576Z,89873.94
2022-11-05T19:01:26.511Z,89865.41
2022-11-05T19:03:55.882Z,89869.53
2022-11-05T19:06:23.398Z,89863.66
2022-11-05T19:08:50.267Z,89867.25
2022-11-05T19:11:23.902Z,89872.13
2022-11-05T19:13:51.456Z,89882.56
2022-11-05T19:16:21.376Z,89879.94
2022-11-05T19:18:48.966Z,89883.28
2022-11-05T19:21:30.112Z,89887.41
2022-11-05T19:23:58.694Z,89882.00
2022-11-05T19:26:29.769Z,89884.31
2022-11-05T19:29:01.371Z,89886.31
2022-11-05T19:31:28.647Z,89886.81
2022-11-05T19:33:55.902Z,89885.63
2022-11-05T19:36:24.107Z,89890.47
2022-11-05T19:38:55.908Z,89887.06
2022-11-05T19:41:22.664Z,89891.44
2022-11-05T19:43:49.789Z,89896.06
2022-11-05T19:46:19.417Z,89896.50
2022-11-05T19:48:46.348Z,89900.28
2022-11-05T19:51:25.273Z,89900.91
2022-11-05T19:53:53.321Z,89897.09
2022-11-05T19:56:26.946Z,89903.03
2022-11-05T19:58:54.629Z,89899.91
2022-11-05T20:01:26.864Z,89902.91
2022-11-05T20:03:55.732Z,89909.25
2022-11-05T20:06:26.531Z,89909.19
2022-11-05T20:09:19.870Z,89908.66
2022-11-05T20:11:40.732Z,89901.03
2022-11-05T20:14:09.417Z,89904.69
2022-11-05T20:16:36.658Z,89903.53
2022-11-05T20:19:05.632Z,89905.72
2022-11-05T20:21:33.064Z,89904.47
2022-11-05T20:24:01.342Z,89910.22
2022-11-05T20:26:28.556Z,89908.78
2022-11-05T20:28:55.746Z,89909.09
2022-11-05T20:31:23.104Z,89912.56
2022-11-05T20:33:52.835Z,89901.84
2022-11-05T20:36:21.908Z,89903.22
2022-11-05T20:38:51.171Z,89910.72
2022-11-05T20:41:19.200Z,89903.78
2022-11-05T20:43:48.266Z,89898.06
2022-11-05T20:46:17.168Z,89898.91
2022-11-05T20:48:45.098Z,89906.97
2022-11-05T20:51:15.171Z,89906.31
2022-11-05T20:53:42.954Z,89903.91
2022-11-05T20:56:20.531Z,89906.59
2022-11-05T20:58:47.358Z,89903.41
2022-11-05T21:01:15.388Z,89901.25
2022-11-05T21:03:46.988Z,89912.72
2022-11-05T21:06:14.363Z,89905.91
2022-11-05T21:08:41.512Z,89899.91
2022-11-05T21:11:09.069Z,89903.25
2022-11-05T21:13:38.928Z,89900.03
2022-11-05T21:16:08.223Z,89911.38
2022-11-05T21:18:37.112Z,89906.25
2022-11-05T21:21:16.538Z,89908.84
2022-11-05T21:23:43.819Z,89901.13
2022-11-05T21:26:14.415Z,89896.31
2022-11-05T21:28:41.756Z,89908.66
2022-11-05T21:31:09.624Z,89910.31
2022-11-05T21:33:36.683Z,89899.31
2022-11-05T21:36:11.390Z,89897.91
2022-11-05T21:38:39.355Z,89894.97
2022-11-05T21:41:10.043Z,89893.59
2022-11-05T21:43:39.432Z,89898.94
2022-11-05T21:46:06.876Z,89894.88
2022-11-05T21:48:34.516Z,89895.78
2022-11-05T21:51:01.686Z,89900.16
2022-11-05T21:53:28.709Z,89894.88
2022-11-05T21:55:56.947Z,89891.56
2022-11-05T21:58:24.032Z,89901.59
2022-11-05T22:00:50.867Z,89897.91
2022-11-05T22:03:17.986Z,89901.56
2022-11-05T22:05:45.399Z,89900.06
2022-11-05T22:08:12.413Z,89886.78
2022-11-05T22:10:39.260Z,89896.59
2022-11-05T22:13:08.322Z,89896.06
2022-11-05T22:15:35.104Z,89900.53
2022-11-05T22:18:01.921Z,89900.31
2022-11-05T22:20:29.239Z,89896.13
2022-11-05T22:22:56.032Z,89899.94
2022-11-05T22:25:22.810Z,89899.72
2022-11-05T22:27:49.631Z,89897.88
2022-11-05T22:30:16.934Z,89897.50
2022-11-05T22:32:43.708Z,89907.88
2022-11-05T22:35:11.059Z,89895.88
2022-11-05T22:37:37.831Z,89904.84
2022-11-05T22:40:05.157Z,89904.22
2022-11-05T22:42:31.988Z,89904.28
2022-11-05T22:44:58.769Z,89899.22
2022-11-05T22:47:26.692Z,89900.72
2022-11-05T22:49:53.694Z,89903.38
2022-11-05T22:52:20.491Z,89900.00
2022-11-05T22:54:47.218Z,89900.66
2022-11-05T22:57:14.289Z,89895.25
2022-11-05T22:59:41.259Z,89895.31
2022-11-05T23:02:10.043Z,89897.06
2022-11-05T23:04:37.968Z,89895.03
2022-11-05T23:07:04.802Z,89893.25
2022-11-05T23:09:34.411Z,89895.75
2022-11-05T23:12:02.607Z,89895.28
2022-11-05T23:14:29.655Z,89900.78
2022-11-05T23:16:56.699Z,89903.34
2022-11-05T23:19:23.897Z,89900.63
2022-11-05T23:21:50.625Z,89903.44
2022-11-05T23:24:17.481Z,89909.06
2022-11-05T23:26:45.304Z,89902.34
2022-11-05T23:29:12.038Z,89900.44
2022-11-05T23:31:38.851Z,89901.69
2022-11-05T23:34:05.866Z,89902.34
2022-11-05T23:36:32.574Z,89900.19
2022-11-05T23:38:59.395Z,89899.47
2022-11-05T23:41:26.270Z,89898.75
2022-11-05T23:43:53.019Z,89901.78
2022-11-05T23:46:19.777Z,89905.56
2022-11-05T23:48:48.283Z,89903.81
2022-11-05T23:51:15.000Z,89900.97
2022-11-05T23:53:41.904Z,89893.75
2022-11-05T23:56:12.282Z,89899.59
2022-11-05T23:58:39.949Z,89901.97
